createdAt,value
2023-03-29T00:01:54.915Z,89.48
2023-03-29T00:04:23.962Z,89.05
2023-03-29T00:06:53.673Z,89.51
2023-03-29T00:09:24.096Z,89.61
2023-03-29T00:11:53.125Z,89.38
2023-03-29T00:14:24.381Z,89.10
2023-03-29T00:16:53.819Z,89.53
2023-03-29T00:19:22.924Z,89.35
2023-03-29T00:21:51.785Z,90.03
2023-03-29T00:24:21.911Z,89.67
2023-03-29T00:26:50.922Z,89.87
2023-03-29T00:29:19.677Z,89.08
2023-03-29T00:31:54.638Z,89.77
2023-03-29T00:34:25.157Z,89.57
2023-03-29T00:36:59.164Z,89.43
2023-03-29T00:39:28.617Z,89.86
2023-03-29T00:41:58.283Z,89.89
2023-03-29T00:44:55.106Z,89.92
2023-03-29T00:47:29.974Z,89.92
2023-03-29T00:50:06.903Z,89.52
2023-03-29T00:52:40.412Z,89.62
2023-03-29T00:55:14.722Z,89.29
2023-03-29T00:57:47.054Z,89.52
2023-03-29T01:00:21.663Z,90.06
2023-03-29T01:03:00.439Z,89.45
2023-03-29T01:05:35.310Z,89.23
2023-03-29T01:08:19.023Z,90.28
2023-03-29T01:11:02.962Z,90.31
2023-03-29T01:13:52.520Z,89.43
2023-03-29T01:16:22.967Z,89.27
2023-03-29T01:18:53.205Z,89.79
2023-03-29T01:21:42.244Z,89.87
2023-03-29T01:24:52.666Z,89.75
2023-03-29T01:27:32.689Z,88.94
2023-03-29T01:30:09.694Z,89.42
2023-03-29T01:33:08.396Z,89.18
2023-03-29T01:35:43.390Z,89.62
2023-03-29T01:38:35.613Z,89.14
2023-03-29T01:41:04.872Z,89.37
2023-03-29T01:43:49.932Z,89.81
2023-03-29T01:46:37.122Z,89.99
2023-03-29T01:49:33.219Z,89.55
2023-03-29T01:52:16.899Z,89.58
2023-03-29T01:55:16.344Z,89.65
2023-03-29T01:57:48.254Z,89.97
2023-03-29T02:00:25.561Z,88.31
2023-03-29T02:03:02.113Z,85.52
2023-03-29T02:05:32.460Z,81.72
2023-03-29T02:08:06.021Z,78.55
2023-03-29T02:10:36.078Z,76.65
2023-03-29T02:13:06.279Z,73.78
2023-03-29T02:15:35.317Z,72.63
2023-03-29T02:18:05.035Z,69.80
2023-03-29T02:20:39.711Z,68.15
2023-03-29T02:23:24.114Z,65.86
2023-03-29T02:25:54.996Z,64.28
2023-03-29T02:28:26.198Z,62.73
2023-03-29T02:31:09.268Z,61.73
2023-03-29T02:33:53.916Z,59.94
2023-03-29T02:36:39.119Z,59.34
2023-03-29T02:39:10.662Z,59.68
2023-03-29T02:41:41.564Z,58.30
2023-03-29T02:44:14.908Z,56.84
2023-03-29T02:46:44.778Z,56.14
2023-03-29T02:49:14.388Z,54.92
2023-03-29T02:51:44.443Z,54.60
2023-03-29T02:54:19.278Z,55.91
2023-03-29T02:56:59.081Z,55.65
2023-03-29T02:59:30.623Z,57.76
2023-03-29T03:02:01.339Z,58.27
2023-03-29T03:04:30.537Z,59.02
2023-03-29T03:06:59.742Z,59.69
2023-03-29T03:09:29.175Z,59.92
2023-03-29T03:11:58.345Z,61.10
2023-03-29T03:14:29.182Z,61.82
2023-03-29T03:17:00.676Z,62.54
2023-03-29T03:19:31.403Z,63.22
2023-03-29T03:22:00.405Z,63.74
2023-03-29T03:24:29.276Z,65.25
2023-03-29T03:26:58.893Z,65.63
2023-03-29T03:29:29.120Z,65.78
2023-03-29T03:32:00.900Z,66.26
2023-03-29T03:34:52.568Z,66.38
2023-03-29T03:37:24.792Z,66.45
2023-03-29T03:39:54.356Z,66.41
2023-03-29T03:42:23.998Z,66.63
2023-03-29T03:44:52.859Z,67.40
2023-03-29T03:47:47.970Z,67.12
2023-03-29T03:50:37.211Z,67.41
2023-03-29T03:53:08.195Z,66.77
2023-03-29T03:55:57.202Z,66.75
2023-03-29T03:58:31.555Z,66.50
2023-03-29T04:01:01.209Z,65.80
2023-03-29T04:03:40.662Z,65.47
2023-03-29T04:06:13.279Z,65.45
2023-03-29T04:09:00.511Z,65.37
2023-03-29T04:11:37.514Z,64.14
2023-03-29T04:14:07.571Z,64.10
2023-03-29T04:17:04.343Z,63.27
2023-03-29T04:19:59.152Z,62.77
2023-03-29T04:22:30.930Z,62.79
2023-03-29T04:25:00.216Z,62.39
2023-03-29T04:27:49.780Z,62.32
2023-03-29T04:30:38.921Z,62.25
2023-03-29T04:33:16.696Z,62.24
2023-03-29T04:35:50.276Z,62.14
2023-03-29T04:38:23.895Z,61.39
2023-03-29T04:40:56.518Z,61.73
2023-03-29T04:43:35.297Z,61.60
2023-03-29T04:46:27.279Z,61.01
2023-03-29T04:49:14.539Z,61.63
2023-03-29T04:51:47.246Z,61.57
2023-03-29T04:54:19.330Z,61.96
2023-03-29T04:57:09.348Z,61.27
2023-03-29T04:59:56.711Z,61.02
2023-03-29T05:02:48.178Z,61.20
2023-03-29T05:05:17.442Z,61.33
2023-03-29T05:07:48.100Z,60.78
2023-03-29T05:10:20.857Z,61.33
2023-03-29T05:12:54.757Z,61.23
2023-03-29T05:15:24.744Z,60.48
2023-03-29T05:17:54.285Z,59.86
2023-03-29T05:20:23.566Z,59.48
2023-03-29T05:22:53.402Z,59.61
2023-03-29T05:25:45.443Z,59.05
2023-03-29T05:28:14.456Z,59.21
2023-03-29T05:30:43.896Z,58.42
2023-03-29T05:33:21.717Z,58.96
2023-03-29T05:35:50.518Z,57.38
2023-03-29T05:38:19.435Z,58.23
2023-03-29T05:40:48.399Z,58.81
2023-03-29T05:43:37.452Z,57.73
2023-03-29T05:46:06.952Z,57.85
2023-03-29T05:48:37.455Z,57.05
2023-03-29T05:51:06.734Z,56.76
2023-03-29T05:53:36.094Z,56.44
2023-03-29T05:56:05.134Z,56.79
2023-03-29T05:58:34.095Z,56.34
2023-03-29T06:01:05.108Z,56.40
2023-03-29T06:03:54.453Z,55.54
2023-03-29T06:06:27.890Z,56.99
2023-03-29T06:08:57.575Z,57.53
2023-03-29T06:11:33.755Z,56.08
2023-03-29T06:14:05.640Z,57.56
2023-03-29T06:16:39.629Z,56.92
2023-03-29T06:19:10.381Z,56.47
2023-03-29T06:21:42.138Z,56.34
2023-03-29T06:24:14.756Z,56.69
2023-03-29T06:26:48.928Z,56.67
2023-03-29T06:29:18.201Z,57.05
2023-03-29T06:31:48.870Z,56.91
2023-03-29T06:34:38.486Z,57.26
2023-03-29T06:37:29.979Z,57.90
2023-03-29T06:40:11.880Z,56.86
2023-03-29T06:42:44.300Z,56.90
2023-03-29T06:45:39.299Z,57.85
2023-03-29T06:48:15.127Z,57.37
2023-03-29T06:50:44.413Z,57.71
2023-03-29T06:53:16.622Z,57.99
2023-03-29T06:55:53.297Z,58.62
2023-03-29T06:58:41.580Z,58.41
2023-03-29T07:01:29.584Z,59.23
2023-03-29T07:04:10.152Z,58.97
2023-03-29T07:07:12.841Z,59.23
2023-03-29T07:09:41.764Z,59.90
2023-03-29T07:12:39.872Z,60.19
2023-03-29T07:15:10.338Z,60.35
2023-03-29T07:17:59.678Z,60.38
2023-03-29T07:20:29.119Z,61.20
2023-03-29T07:23:12.148Z,61.13
2023-03-29T07:25:41.822Z,60.71
2023-03-29T07:28:11.827Z,60.76
2023-03-29T07:30:41.060Z,61.33
2023-03-29T07:33:19.674Z,60.90
2023-03-29T07:35:56.154Z,60.83
2023-03-29T07:38:25.986Z,61.08
2023-03-29T07:41:08.838Z,60.37
2023-03-29T07:43:46.255Z,60.72
2023-03-29T07:46:18.140Z,60.64
2023-03-29T07:48:47.357Z,60.30
2023-03-29T07:51:17.365Z,60.11
2023-03-29T07:53:50.033Z,60.27
2023-03-29T07:56:45.352Z,60.33
2023-03-29T07:59:21.451Z,60.28
2023-03-29T08:02:03.693Z,60.57
2023-03-29T08:04:37.395Z,61.41
2023-03-29T08:07:22.669Z,61.08
2023-03-29T08:10:08.176Z,60.95
2023-03-29T08:12:52.930Z,61.81
2023-03-29T08:15:28.820Z,61.58
2023-03-29T08:17:57.781Z,61.80
2023-03-29T08:20:28.336Z,61.79
2023-03-29T08:23:02.490Z,63.16
2023-03-29T08:25:51.725Z,63.48
2023-03-29T08:28:20.734Z,63.60
2023-03-29T08:30:53.611Z,64.24
2023-03-29T08:33:23.298Z,63.94
2023-03-29T08:36:12.613Z,64.46
2023-03-29T08:38:41.542Z,64.93
2023-03-29T08:41:44.957Z,64.89
2023-03-29T08:44:16.792Z,64.83
2023-03-29T08:47:12.496Z,65.85
2023-03-29T08:49:49.333Z,66.06
2023-03-29T08:52:43.708Z,66.61
2023-03-29T08:55:44.639Z,66.88
2023-03-29T08:58:43.445Z,67.58
2023-03-29T09:01:12.655Z,67.84
2023-03-29T09:04:12.166Z,67.70
2023-03-29T09:07:03.164Z,67.72
2023-03-29T09:09:39.876Z,68.69
2023-03-29T09:12:47.383Z,69.15
2023-03-29T09:15:41.451Z,69.08
2023-03-29T09:18:44.757Z,70.02
2023-03-29T09:21:31.919Z,71.37
2023-03-29T09:24:27.918Z,72.19
2023-03-29T09:27:18.582Z,72.71
2023-03-29T09:29:57.833Z,73.67
2023-03-29T09:32:55.427Z,73.95
2023-03-29T09:35:45.460Z,74.66
2023-03-29T09:38:16.115Z,75.04
2023-03-29T09:40:56.126Z,75.46
2023-03-29T09:43:38.792Z,76.51
2023-03-29T09:46:17.643Z,76.77
2023-03-29T09:48:48.384Z,76.22
2023-03-29T09:51:18.790Z,76.57
2023-03-29T09:53:48.003Z,77.19
2023-03-29T09:56:35.526Z,77.58
2023-03-29T09:59:14.273Z,78.09
2023-03-29T10:01:48.061Z,78.51
2023-03-29T10:04:19.048Z,78.92
2023-03-29T10:06:55.001Z,79.46
2023-03-29T10:09:25.689Z,79.60
2023-03-29T10:12:04.522Z,79.88
2023-03-29T10:14:34.223Z,79.02
2023-03-29T10:17:08.069Z,79.13
2023-03-29T10:19:37.619Z,79.05
2023-03-29T10:22:18.491Z,78.53
2023-03-29T10:24:55.991Z,78.54
2023-03-29T10:27:32.673Z,78.56
2023-03-29T10:30:09.932Z,78.07
2023-03-29T10:32:40.513Z,77.53
2023-03-29T10:35:18.532Z,77.07
2023-03-29T10:37:55.632Z,76.22
2023-03-29T10:40:27.297Z,76.30
2023-03-29T10:43:00.590Z,75.23
2023-03-29T10:45:38.512Z,74.61
2023-03-29T10:48:12.449Z,74.81
2023-03-29T10:50:42.393Z,74.43
2023-03-29T10:53:36.180Z,74.27
2023-03-29T10:56:30.110Z,74.41
2023-03-29T10:59:09.987Z,73.62
2023-03-29T11:02:19.208Z,73.58
2023-03-29T11:04:59.942Z,73.61
2023-03-29T11:07:51.855Z,73.36
2023-03-29T11:10:45.411Z,72.99
2023-03-29T11:13:21.598Z,72.76
2023-03-29T11:16:13.933Z,72.20
2023-03-29T11:19:28.010Z,72.21
2023-03-29T11:22:26.229Z,72.60
2023-03-29T11:25:03.958Z,71.93
2023-03-29T11:27:32.781Z,71.87
2023-03-29T11:30:26.772Z,71.64
2023-03-29T11:33:09.445Z,71.46
2023-03-29T11:36:17.343Z,71.22
2023-03-29T11:39:06.488Z,70.92
2023-03-29T11:41:40.240Z,70.89
2023-03-29T11:44:10.464Z,70.62
2023-03-29T11:47:01.830Z,70.51
2023-03-29T11:49:44.447Z,70.67
2023-03-29T11:52:45.346Z,70.69
2023-03-29T11:55:17.122Z,70.65
2023-03-29T11:58:20.077Z,70.92
2023-03-29T12:01:17.905Z,70.84
2023-03-29T12:03:49.545Z,70.96
2023-03-29T12:06:29.337Z,71.41
2023-03-29T12:09:56.392Z,70.52
2023-03-29T12:12:33.749Z,70.65
2023-03-29T12:15:08.262Z,70.76
2023-03-29T12:17:47.921Z,70.45
2023-03-29T12:20:24.057Z,70.35
2023-03-29T12:22:56.387Z,70.42
2023-03-29T12:25:31.587Z,69.86
2023-03-29T12:28:17.653Z,70.16
2023-03-29T12:31:02.367Z,69.61
2023-03-29T12:33:37.236Z,69.98
2023-03-29T12:36:48.451Z,69.62
2023-03-29T12:39:41.670Z,70.08
2023-03-29T12:42:30.861Z,70.23
2023-03-29T12:45:31.490Z,70.60
2023-03-29T12:48:02.143Z,70.30
2023-03-29T12:50:48.390Z,69.99
2023-03-29T12:53:42.841Z,70.08
2023-03-29T12:56:22.384Z,70.15
2023-03-29T12:58:57.785Z,69.98
2023-03-29T13:01:36.054Z,70.10
2023-03-29T13:04:20.544Z,70.32
2023-03-29T13:07:04.355Z,70.47
2023-03-29T13:10:00.524Z,70.32
2023-03-29T13:12:46.594Z,70.52
2023-03-29T13:15:18.240Z,70.38
2023-03-29T13:17:59.117Z,71.05
2023-03-29T13:20:38.884Z,70.72
2023-03-29T13:23:28.012Z,70.76
2023-03-29T13:26:09.537Z,70.70
2023-03-29T13:29:05.654Z,71.06
2023-03-29T13:32:08.570Z,70.91
2023-03-29T13:35:11.230Z,70.68
2023-03-29T13:37:57.750Z,70.88
2023-03-29T13:40:35.374Z,71.01
2023-03-29T13:43:28.429Z,70.64
2023-03-29T13:45:58.495Z,70.59
2023-03-29T13:48:30.979Z,70.27
2023-03-29T13:51:01.964Z,70.73
2023-03-29T13:53:33.836Z,71.23
2023-03-29T13:56:03.886Z,70.97
2023-03-29T13:58:47.292Z,71.07
2023-03-29T14:01:30.941Z,71.01
2023-03-29T14:04:00.909Z,70.87
2023-03-29T14:06:37.553Z,70.92
2023-03-29T14:09:09.663Z,71.21
2023-03-29T14:11:39.680Z,71.22
2023-03-29T14:14:11.287Z,70.22
2023-03-29T14:16:42.902Z,70.79
2023-03-29T14:19:31.270Z,70.15
2023-03-29T14:22:08.699Z,70.02
2023-03-29T14:24:48.882Z,70.30
2023-03-29T14:27:18.402Z,70.10
2023-03-29T14:29:49.915Z,69.95
2023-03-29T14:32:21.595Z,70.38
2023-03-29T14:34:51.663Z,69.93
2023-03-29T14:37:29.818Z,69.74
2023-03-29T14:40:00.332Z,68.72
2023-03-29T14:42:30.167Z,68.99
2023-03-29T14:45:10.173Z,68.61
2023-03-29T14:47:41.417Z,69.19
2023-03-29T14:50:25.325Z,68.85
2023-03-29T14:52:54.833Z,69.38
2023-03-29T14:55:24.693Z,69.10
2023-03-29T14:57:56.228Z,67.92
2023-03-29T15:00:32.178Z,68.34
2023-03-29T15:03:03.291Z,68.27
2023-03-29T15:05:41.913Z,67.99
2023-03-29T15:08:24.588Z,67.08
2023-03-29T15:10:53.739Z,67.46
2023-03-29T15:13:25.276Z,67.64
2023-03-29T15:15:58.768Z,67.40
2023-03-29T15:18:42.074Z,67.68
2023-03-29T15:21:14.853Z,67.29
2023-03-29T15:23:52.218Z,67.56
2023-03-29T15:26:39.045Z,67.58
2023-03-29T15:29:10.734Z,67.68
2023-03-29T15:31:42.778Z,67.68
2023-03-29T15:34:14.635Z,67.14
2023-03-29T15:36:47.174Z,67.54
2023-03-29T15:39:18.373Z,67.51
2023-03-29T15:41:50.384Z,67.34
2023-03-29T15:44:27.337Z,68.12
2023-03-29T15:46:58.556Z,67.57
2023-03-29T15:49:28.336Z,67.42
2023-03-29T15:51:57.474Z,67.68
2023-03-29T15:54:26.606Z,67.01
2023-03-29T15:57:02.655Z,67.30
2023-03-29T15:59:37.161Z,66.78
2023-03-29T16:02:06.970Z,66.71
2023-03-29T16:04:36.074Z,67.74
2023-03-29T16:07:11.828Z,67.45
2023-03-29T16:09:41.136Z,66.91
2023-03-29T16:12:10.905Z,67.42
2023-03-29T16:14:42.594Z,67.44
2023-03-29T16:17:13.062Z,67.72
2023-03-29T16:19:42.120Z,67.71
2023-03-29T16:22:11.349Z,67.49
2023-03-29T16:24:40.390Z,67.31
2023-03-29T16:27:09.620Z,66.87
2023-03-29T16:29:38.532Z,67.72
2023-03-29T16:32:07.861Z,67.18
2023-03-29T16:34:36.674Z,67.48
2023-03-29T16:37:07.412Z,66.68
2023-03-29T16:39:38.720Z,66.84
2023-03-29T16:42:12.211Z,66.81
2023-03-29T16:44:41.712Z,67.14
2023-03-29T16:47:13.065Z,66.50
2023-03-29T16:49:45.680Z,66.68
2023-03-29T16:52:14.807Z,66.96
2023-03-29T16:54:44.213Z,66.90
2023-03-29T16:57:13.101Z,66.15
2023-03-29T16:59:45.760Z,67.08
2023-03-29T17:02:17.185Z,66.57
2023-03-29T17:04:46.392Z,66.89
2023-03-29T17:07:16.231Z,66.57
2023-03-29T17:09:46.736Z,66.37
2023-03-29T17:12:16.026Z,66.23
2023-03-29T17:14:45.394Z,66.64
2023-03-29T17:17:14.361Z,67.18
2023-03-29T17:19:43.245Z,66.39
2023-03-29T17:22:12.265Z,66.76
2023-03-29T17:24:41.188Z,66.05
2023-03-29T17:27:09.987Z,66.87
2023-03-29T17:29:39.077Z,66.10
2023-03-29T17:32:08.239Z,66.14
2023-03-29T17:34:37.589Z,66.14
2023-03-29T17:37:07.554Z,65.98
2023-03-29T17:39:38.206Z,66.13
2023-03-29T17:44:31.950Z,65.67
2023-03-29T17:47:03.937Z,65.54
2023-03-29T17:49:32.807Z,65.70
2023-03-29T17:52:01.538Z,66.05
2023-03-29T17:54:30.847Z,65.87
2023-03-29T17:57:00.525Z,65.73
2023-03-29T17:59:29.197Z,65.88
2023-03-29T18:01:58.457Z,65.52
2023-03-29T18:04:27.654Z,66.25
2023-03-29T18:06:56.659Z,65.91
2023-03-29T18:09:30.229Z,66.02
2023-03-29T18:11:59.809Z,65.79
2023-03-29T18:14:28.623Z,65.79
2023-03-29T18:16:57.929Z,65.61
2023-03-29T18:19:27.305Z,66.07
2023-03-29T18:21:57.013Z,65.67
2023-03-29T18:24:25.658Z,65.71
2023-03-29T18:26:54.820Z,65.94
2023-03-29T18:29:24.931Z,66.32
2023-03-29T18:31:54.091Z,66.58
2023-03-29T18:34:23.360Z,66.71
2023-03-29T18:36:54.314Z,66.11
2023-03-29T18:39:23.329Z,65.84
2023-03-29T18:41:53.414Z,65.90
2023-03-29T18:44:23.486Z,66.16
2023-03-29T18:46:55.477Z,65.90
2023-03-29T18:49:25.727Z,65.37
2023-03-29T18:51:55.977Z,65.97
2023-03-29T18:54:24.703Z,65.97
2023-03-29T18:56:53.548Z,66.24
2023-03-29T18:59:22.427Z,65.86
2023-03-29T19:01:55.784Z,65.66
2023-03-29T19:04:26.874Z,65.68
2023-03-29T19:06:56.948Z,65.72
2023-03-29T19:09:25.684Z,65.52
2023-03-29T19:11:54.867Z,66.10
2023-03-29T19:14:26.086Z,65.87
2023-03-29T19:16:55.087Z,66.15
2023-03-29T19:19:27.035Z,65.70
2023-03-29T19:21:59.799Z,66.15
2023-03-29T19:24:29.649Z,65.87
2023-03-29T19:26:59.097Z,65.98
2023-03-29T19:29:28.000Z,65.69
2023-03-29T19:31:57.774Z,65.61
2023-03-29T19:34:27.425Z,65.94
2023-03-29T19:36:56.097Z,66.28
2023-03-29T19:39:25.973Z,66.19
2023-03-29T19:41:57.419Z,65.73
2023-03-29T19:44:26.389Z,66.02
2023-03-29T19:46:55.200Z,66.05
2023-03-29T19:49:24.146Z,66.50
2023-03-29T19:51:57.406Z,66.72
2023-03-29T19:54:27.298Z,66.39
2023-03-29T19:56:58.074Z,66.43
2023-03-29T19:59:28.028Z,66.45
2023-03-29T20:01:57.397Z,65.87
2023-03-29T20:04:26.846Z,65.87
2023-03-29T20:06:55.496Z,66.08
2023-03-29T20:09:24.278Z,66.50
2023-03-29T20:11:53.499Z,66.29
2023-03-29T20:14:22.833Z,66.61
2023-03-29T20:16:52.086Z,66.45
2023-03-29T20:19:30.387Z,66.73
2023-03-29T20:21:59.716Z,66.03
2023-03-29T20:24:28.628Z,66.79
2023-03-29T20:26:58.329Z,66.74
2023-03-29T20:29:27.897Z,66.75
2023-03-29T20:31:59.826Z,66.94
2023-03-29T20:34:29.688Z,66.38
2023-03-29T20:37:01.526Z,67.08
2023-03-29T20:39:32.349Z,66.84
2023-03-29T20:42:01.889Z,67.05
2023-03-29T20:44:33.519Z,67.11
2023-03-29T20:47:04.638Z,67.29
2023-03-29T20:49:41.132Z,67.17
2023-03-29T20:52:18.119Z,66.38
2023-03-29T20:54:47.474Z,67.28
2023-03-29T20:57:19.903Z,67.30
2023-03-29T20:59:49.896Z,66.96
2023-03-29T21:02:22.035Z,67.23
2023-03-29T21:04:52.777Z,67.02
2023-03-29T21:07:22.265Z,66.72
2023-03-29T21:09:51.914Z,67.56
2023-03-29T21:12:24.270Z,66.91
2023-03-29T21:14:53.146Z,67.36
2023-03-29T21:17:22.129Z,66.82
2023-03-29T21:19:50.814Z,67.12
2023-03-29T21:22:19.729Z,66.32
2023-03-29T21:24:48.369Z,67.04
2023-03-29T21:27:20.338Z,66.59
2023-03-29T21:29:50.455Z,66.58
2023-03-29T21:32:22.114Z,67.68
2023-03-29T21:34:51.116Z,67.50
2023-03-29T21:37:19.976Z,67.49
2023-03-29T21:39:48.707Z,67.79
2023-03-29T21:42:17.834Z,67.45
2023-03-29T21:44:46.549Z,67.52
2023-03-29T21:47:15.314Z,67.17
2023-03-29T21:49:43.948Z,66.91
2023-03-29T21:52:14.259Z,66.89
2023-03-29T21:54:43.252Z,67.11
2023-03-29T21:57:12.924Z,67.32
2023-03-29T21:59:41.754Z,67.85
2023-03-29T22:02:10.564Z,67.36
2023-03-29T22:04:39.459Z,67.15
2023-03-29T22:07:09.013Z,68.08
2023-03-29T22:09:38.294Z,67.22
2023-03-29T22:12:07.415Z,67.13
2023-03-29T22:14:36.617Z,68.22
2023-03-29T22:17:06.848Z,67.23
2023-03-29T22:19:40.130Z,67.63
2023-03-29T22:22:14.192Z,67.49
2023-03-29T22:24:43.336Z,67.82
2023-03-29T22:27:13.015Z,67.45
2023-03-29T22:29:41.938Z,68.76
2023-03-29T22:32:11.313Z,68.16
2023-03-29T22:34:40.168Z,68.04
2023-03-29T22:37:08.904Z,68.02
2023-03-29T22:39:42.477Z,68.67
2023-03-29T22:42:12.149Z,68.52
2023-03-29T22:44:41.487Z,67.85
2023-03-29T22:47:10.350Z,68.02
2023-03-29T22:49:39.537Z,67.78
2023-03-29T22:52:08.512Z,67.93
2023-03-29T22:54:37.389Z,68.03
2023-03-29T22:57:06.585Z,67.91
2023-03-29T22:59:36.327Z,67.89
2023-03-29T23:02:05.596Z,68.02
2023-03-29T23:04:34.461Z,67.38
2023-03-29T23:07:03.629Z,67.58
2023-03-29T23:09:32.410Z,67.16
2023-03-29T23:12:02.024Z,68.13
2023-03-29T23:14:30.830Z,67.16
2023-03-29T23:16:59.782Z,67.72
2023-03-29T23:19:29.255Z,67.88
2023-03-29T23:21:58.469Z,67.41
2023-03-29T23:24:27.407Z,67.61
2023-03-29T23:26:56.208Z,67.39
2023-03-29T23:29:28.067Z,67.49
2023-03-29T23:31:57.546Z,68.26
2023-03-29T23:34:26.448Z,67.47
2023-03-29T23:36:55.109Z,67.84
2023-03-29T23:39:24.384Z,68.44
2023-03-29T23:41:53.071Z,67.72
2023-03-29T23:44:22.150Z,68.70
2023-03-29T23:46:51.022Z,67.65
2023-03-29T23:49:23.589Z,68.21
2023-03-29T23:51:53.031Z,67.52
2023-03-29T23:54:21.886Z,67.92
2023-03-29T23:56:50.766Z,68.82
2023-03-29T23:59:19.812Z,68.50
